sensor_id;sensor_type;location;lat;lon;timestamp;P1;durP1;ratioP1;P2;durP2;ratioP2
4583;SDS011;2304;47.606;12.186;2023-03-19T00:03:08;9.27;;;4.63;;
4583;SDS011;2304;47.606;12.186;2023-03-19T00:08:12;14.03;;;5.60;;
4583;SDS011;2304;47.606;12.186;2023-03-19T00:13:14;14.33;;;5.80;;
4583;SDS011;2304;47.606;12.186;2023-03-19T00:18:16;10.13;;;5.20;;
4583;SDS011;2304;47.606;12.186;2023-03-19T00:23:19;11.67;;;4.90;;
4583;SDS011;2304;47.606;12.186;2023-03-19T00:28:21;17.67;;;6.00;;
4583;SDS011;2304;47.606;12.186;2023-03-19T00:33:23;16.00;;;5.93;;
4583;SDS011;2304;47.606;12.186;2023-03-19T00:38:26;10.60;;;5.70;;
4583;SDS011;2304;47.606;12.186;2023-03-19T00:43:29;19.60;;;8.60;;
4583;SDS011;2304;47.606;12.186;2023-03-19T00:48:31;16.60;;;7.90;;
4583;SDS011;2304;47.606;12.186;2023-03-19T00:53:36;20.77;;;9.60;;
4583;SDS011;2304;47.606;12.186;2023-03-19T00:58:39;22.57;;;10.80;;
4583;SDS011;2304;47.606;12.186;2023-03-19T01:03:41;14.77;;;7.33;;
4583;SDS011;2304;47.606;12.186;2023-03-19T01:08:44;16.73;;;8.40;;
4583;SDS011;2304;47.606;12.186;2023-03-19T01:13:46;10.20;;;6.30;;
4583;SDS011;2304;47.606;12.186;2023-03-19T01:18:48;10.33;;;5.90;;
4583;SDS011;2304;47.606;12.186;2023-03-19T01:23:51;10.03;;;5.60;;
4583;SDS011;2304;47.606;12.186;2023-03-19T01:28:53;8.63;;;5.30;;
4583;SDS011;2304;47.606;12.186;2023-03-19T01:33:55;12.83;;;6.00;;
4583;SDS011;2304;47.606;12.186;2023-03-19T01:38:58;8.97;;;5.50;;
4583;SDS011;2304;47.606;12.186;2023-03-19T01:44:00;21.53;;;6.27;;
4583;SDS011;2304;47.606;12.186;2023-03-19T01:49:02;11.27;;;5.90;;
4583;SDS011;2304;47.606;12.186;2023-03-19T01:54:09;14.60;;;5.13;;
4583;SDS011;2304;47.606;12.186;2023-03-19T01:59:14;10.30;;;5.17;;
4583;SDS011;2304;47.606;12.186;2023-03-19T02:04:20;13.23;;;5.73;;
4583;SDS011;2304;47.606;12.186;2023-03-19T02:09:24;9.03;;;4.83;;
4583;SDS011;2304;47.606;12.186;2023-03-19T02:14:27;7.80;;;4.63;;
4583;SDS011;2304;47.606;12.186;2023-03-19T02:19:30;12.07;;;4.97;;
4583;SDS011;2304;47.606;12.186;2023-03-19T02:24:39;7.80;;;4.40;;
4583;SDS011;2304;47.606;12.186;2023-03-19T02:29:50;8.20;;;4.80;;
4583;SDS011;2304;47.606;12.186;2023-03-19T02:34:52;11.83;;;5.57;;
4583;SDS011;2304;47.606;12.186;2023-03-19T02:39:55;10.30;;;4.33;;
4583;SDS011;2304;47.606;12.186;2023-03-19T02:45:02;7.50;;;4.80;;
4583;SDS011;2304;47.606;12.186;2023-03-19T02:50:04;6.97;;;4.23;;
4583;SDS011;2304;47.606;12.186;2023-03-19T02:55:08;9.00;;;4.63;;
4583;SDS011;2304;47.606;12.186;2023-03-19T03:00:12;8.73;;;5.00;;
4583;SDS011;2304;47.606;12.186;2023-03-19T03:05:16;8.43;;;4.83;;
4583;SDS011;2304;47.606;12.186;2023-03-19T03:10:18;7.23;;;4.73;;
4583;SDS011;2304;47.606;12.186;2023-03-19T03:15:21;8.73;;;4.43;;
4583;SDS011;2304;47.606;12.186;2023-03-19T03:20:23;8.80;;;4.43;;
4583;SDS011;2304;47.606;12.186;2023-03-19T03:25:25;11.80;;;5.60;;
4583;SDS011;2304;47.606;12.186;2023-03-19T03:30:28;8.47;;;4.83;;
4583;SDS011;2304;47.606;12.186;2023-03-19T03:35:30;8.77;;;5.33;;
4583;SDS011;2304;47.606;12.186;2023-03-19T03:40:32;6.53;;;3.97;;
4583;SDS011;2304;47.606;12.186;2023-03-19T03:45:36;8.27;;;4.83;;
4583;SDS011;2304;47.606;12.186;2023-03-19T03:50:38;8.23;;;5.10;;
4583;SDS011;2304;47.606;12.186;2023-03-19T03:55:40;9.80;;;4.13;;
4583;SDS011;2304;47.606;12.186;2023-03-19T04:00:43;8.70;;;4.20;;
4583;SDS011;2304;47.606;12.186;2023-03-19T04:05:46;9.07;;;4.40;;
4583;SDS011;2304;47.606;12.186;2023-03-19T04:10:48;9.37;;;4.73;;
4583;SDS011;2304;47.606;12.186;2023-03-19T04:15:52;6.20;;;3.60;;
4583;SDS011;2304;47.606;12.186;2023-03-19T04:20:55;6.13;;;4.07;;
4583;SDS011;2304;47.606;12.186;2023-03-19T04:25:57;8.20;;;4.50;;
4583;SDS011;2304;47.606;12.186;2023-03-19T04:31:01;11.07;;;4.43;;
4583;SDS011;2304;47.606;12.186;2023-03-19T04:36:04;10.37;;;5.10;;
4583;SDS011;2304;47.606;12.186;2023-03-19T04:41:07;13.50;;;5.03;;
4583;SDS011;2304;47.606;12.186;2023-03-19T04:46:11;13.40;;;5.97;;
4583;SDS011;2304;47.606;12.186;2023-03-19T04:51:12;7.27;;;4.30;;
4583;SDS011;2304;47.606;12.186;2023-03-19T04:56:15;9.33;;;5.90;;
4583;SDS011;2304;47.606;12.186;2023-03-19T05:01:19;10.10;;;5.30;;
4583;SDS011;2304;47.606;12.186;2023-03-19T05:06:20;9.93;;;5.07;;
4583;SDS011;2304;47.606;12.186;2023-03-19T05:11:23;7.77;;;4.83;;
4583;SDS011;2304;47.606;12.186;2023-03-19T05:16:26;12.97;;;5.20;;
4583;SDS011;2304;47.606;12.186;2023-03-19T05:21:28;20.00;;;7.00;;
4583;SDS011;2304;47.606;12.186;2023-03-19T05:26:29;6.23;;;4.77;;
4583;SDS011;2304;47.606;12.186;2023-03-19T05:31:33;16.93;;;5.80;;
4583;SDS011;2304;47.606;12.186;2023-03-19T05:36:35;12.97;;;6.03;;
4583;SDS011;2304;47.606;12.186;2023-03-19T05:41:36;9.50;;;4.97;;
4583;SDS011;2304;47.606;12.186;2023-03-19T05:46:39;9.23;;;4.57;;
4583;SDS011;2304;47.606;12.186;2023-03-19T05:51:42;9.43;;;6.20;;
4583;SDS011;2304;47.606;12.186;2023-03-19T05:56:44;9.40;;;5.57;;
4583;SDS011;2304;47.606;12.186;2023-03-19T06:01:47;12.93;;;6.57;;
4583;SDS011;2304;47.606;12.186;2023-03-19T06:06:49;11.83;;;6.23;;
4583;SDS011;2304;47.606;12.186;2023-03-19T06:11:50;10.00;;;6.30;;
4583;SDS011;2304;47.606;12.186;2023-03-19T06:16:54;9.60;;;5.93;;
4583;SDS011;2304;47.606;12.186;2023-03-19T06:21:55;13.10;;;6.53;;
4583;SDS011;2304;47.606;12.186;2023-03-19T06:26:57;8.07;;;5.50;;
4583;SDS011;2304;47.606;12.186;2023-03-19T06:32:00;9.70;;;5.80;;
4583;SDS011;2304;47.606;12.186;2023-03-19T06:37:02;9.80;;;5.33;;
4583;SDS011;2304;47.606;12.186;2023-03-19T06:42:04;11.70;;;5.97;;
4583;SDS011;2304;47.606;12.186;2023-03-19T06:47:08;11.73;;;5.70;;
4583;SDS011;2304;47.606;12.186;2023-03-19T06:52:09;7.93;;;5.37;;
4583;SDS011;2304;47.606;12.186;2023-03-19T06:57:11;10.53;;;6.00;;
4583;SDS011;2304;47.606;12.186;2023-03-19T07:02:15;8.13;;;6.13;;
4583;SDS011;2304;47.606;12.186;2023-03-19T07:07:17;9.63;;;5.13;;
4583;SDS011;2304;47.606;12.186;2023-03-19T07:12:19;10.93;;;5.60;;
4583;SDS011;2304;47.606;12.186;2023-03-19T07:17:22;9.97;;;6.70;;
4583;SDS011;2304;47.606;12.186;2023-03-19T07:22:25;10.83;;;5.70;;
4583;SDS011;2304;47.606;12.186;2023-03-19T07:27:26;10.90;;;5.90;;
4583;SDS011;2304;47.606;12.186;2023-03-19T07:32:29;10.20;;;6.90;;
4583;SDS011;2304;47.606;12.186;2023-03-19T07:37:31;7.77;;;5.30;;
4583;SDS011;2304;47.606;12.186;2023-03-19T07:42:33;7.33;;;5.03;;
4583;SDS011;2304;47.606;12.186;2023-03-19T07:47:37;7.50;;;4.30;;
4583;SDS011;2304;47.606;12.186;2023-03-19T07:52:39;12.63;;;4.60;;
4583;SDS011;2304;47.606;12.186;2023-03-19T07:57:41;7.23;;;4.77;;
4583;SDS011;2304;47.606;12.186;2023-03-19T08:02:44;5.10;;;4.07;;
4583;SDS011;2304;47.606;12.186;2023-03-19T08:07:47;8.40;;;4.77;;
4583;SDS011;2304;47.606;12.186;2023-03-19T08:12:50;8.77;;;5.20;;
4583;SDS011;2304;47.606;12.186;2023-03-19T08:17:57;7.53;;;4.83;;
4583;SDS011;2304;47.606;12.186;2023-03-19T08:22:59;8.00;;;5.27;;
4583;SDS011;2304;47.606;12.186;2023-03-19T08:28:01;8.97;;;5.30;;
4583;SDS011;2304;47.606;12.186;2023-03-19T08:33:05;9.47;;;4.73;;
4583;SDS011;2304;47.606;12.186;2023-03-19T08:38:07;10.37;;;4.90;;
4583;SDS011;2304;47.606;12.186;2023-03-19T08:43:10;8.13;;;4.80;;
4583;SDS011;2304;47.606;12.186;2023-03-19T08:48:13;9.73;;;5.60;;
4583;SDS011;2304;47.606;12.186;2023-03-19T08:53:14;13.23;;;5.13;;
4583;SDS011;2304;47.606;12.186;2023-03-19T08:58:17;11.23;;;5.93;;
4583;SDS011;2304;47.606;12.186;2023-03-19T09:03:21;8.83;;;5.07;;
4583;SDS011;2304;47.606;12.186;2023-03-19T09:08:23;11.83;;;5.53;;
4583;SDS011;2304;47.606;12.186;2023-03-19T09:13:24;8.87;;;4.93;;
4583;SDS011;2304;47.606;12.186;2023-03-19T09:18:28;7.70;;;5.10;;
4583;SDS011;2304;47.606;12.186;2023-03-19T09:23:30;7.17;;;4.73;;
4583;SDS011;2304;47.606;12.186;2023-03-19T09:28:32;9.33;;;4.83;;
4583;SDS011;2304;47.606;12.186;2023-03-19T09:33:36;11.93;;;5.27;;
4583;SDS011;2304;47.606;12.186;2023-03-19T09:38:38;9.07;;;4.70;;
4583;SDS011;2304;47.606;12.186;2023-03-19T09:43:55;9.37;;;4.70;;
4583;SDS011;2304;47.606;12.186;2023-03-19T09:49:02;6.53;;;4.60;;
4583;SDS011;2304;47.606;12.186;2023-03-19T09:54:07;8.77;;;5.27;;
4583;SDS011;2304;47.606;12.186;2023-03-19T09:59:20;10.23;;;4.80;;
4583;SDS011;2304;47.606;12.186;2023-03-19T10:04:38;8.57;;;5.23;;
4583;SDS011;2304;47.606;12.186;2023-03-19T10:09:46;7.10;;;4.90;;
4583;SDS011;2304;47.606;12.186;2023-03-19T10:15:03;8.60;;;4.40;;
4583;SDS011;2304;47.606;12.186;2023-03-19T10:20:24;10.20;;;4.10;;
4583;SDS011;2304;47.606;12.186;2023-03-19T10:25:33;8.00;;;4.50;;
4583;SDS011;2304;47.606;12.186;2023-03-19T10:30:40;11.93;;;4.00;;
4583;SDS011;2304;47.606;12.186;2023-03-19T10:35:44;11.77;;;5.30;;
4583;SDS011;2304;47.606;12.186;2023-03-19T10:40:50;5.40;;;4.00;;
4583;SDS011;2304;47.606;12.186;2023-03-19T10:46:01;8.60;;;4.90;;
4583;SDS011;2304;47.606;12.186;2023-03-19T10:51:04;8.53;;;4.67;;
4583;SDS011;2304;47.606;12.186;2023-03-19T10:56:09;7.00;;;4.30;;
4583;SDS011;2304;47.606;12.186;2023-03-19T11:01:18;6.37;;;4.13;;
4583;SDS011;2304;47.606;12.186;2023-03-19T11:06:22;7.37;;;4.20;;
4583;SDS011;2304;47.606;12.186;2023-03-19T11:11:31;10.93;;;3.90;;
4583;SDS011;2304;47.606;12.186;2023-03-19T11:16:48;6.73;;;3.43;;
4583;SDS011;2304;47.606;12.186;2023-03-19T11:22:09;6.40;;;3.40;;
4583;SDS011;2304;47.606;12.186;2023-03-19T11:27:16;9.10;;;3.17;;
4583;SDS011;2304;47.606;12.186;2023-03-19T11:37:48;8.83;;;4.10;;
4583;SDS011;2304;47.606;12.186;2023-03-19T11:43:11;3.97;;;2.80;;
4583;SDS011;2304;47.606;12.186;2023-03-19T11:48:43;4.20;;;2.90;;
4583;SDS011;2304;47.606;12.186;2023-03-19T11:54:00;6.77;;;3.17;;
4583;SDS011;2304;47.606;12.186;2023-03-19T11:59:10;5.47;;;3.13;;
4583;SDS011;2304;47.606;12.186;2023-03-19T12:04:22;5.93;;;2.70;;
4583;SDS011;2304;47.606;12.186;2023-03-19T12:09:39;5.63;;;2.83;;
4583;SDS011;2304;47.606;12.186;2023-03-19T12:14:52;4.67;;;2.80;;
4583;SDS011;2304;47.606;12.186;2023-03-19T12:20:16;6.57;;;3.47;;
4583;SDS011;2304;47.606;12.186;2023-03-19T12:25:27;5.40;;;3.10;;
4583;SDS011;2304;47.606;12.186;2023-03-19T12:30:40;4.73;;;2.90;;
4583;SDS011;2304;47.606;12.186;2023-03-19T12:35:45;5.60;;;3.30;;
4583;SDS011;2304;47.606;12.186;2023-03-19T12:40:51;6.20;;;3.30;;
4583;SDS011;2304;47.606;12.186;2023-03-19T12:45:59;6.90;;;3.20;;
4583;SDS011;2304;47.606;12.186;2023-03-19T12:51:07;6.30;;;3.00;;
4583;SDS011;2304;47.606;12.186;2023-03-19T12:56:14;8.67;;;3.40;;
4583;SDS011;2304;47.606;12.186;2023-03-19T13:01:21;7.93;;;3.60;;
4583;SDS011;2304;47.606;12.186;2023-03-19T13:06:27;5.50;;;3.50;;
4583;SDS011;2304;47.606;12.186;2023-03-19T13:11:37;7.30;;;3.70;;
4583;SDS011;2304;47.606;12.186;2023-03-19T13:16:45;6.83;;;3.30;;
4583;SDS011;2304;47.606;12.186;2023-03-19T13:21:53;7.03;;;3.10;;
4583;SDS011;2304;47.606;12.186;2023-03-19T13:27:00;4.50;;;2.43;;
4583;SDS011;2304;47.606;12.186;2023-03-19T13:32:03;4.77;;;3.20;;
4583;SDS011;2304;47.606;12.186;2023-03-19T13:37:10;4.10;;;2.60;;
4583;SDS011;2304;47.606;12.186;2023-03-19T13:42:33;5.60;;;3.10;;
4583;SDS011;2304;47.606;12.186;2023-03-19T13:47:38;6.70;;;2.93;;
4583;SDS011;2304;47.606;12.186;2023-03-19T13:52:45;20.50;;;9.40;;
4583;SDS011;2304;47.606;12.186;2023-03-19T13:57:54;7.90;;;4.13;;
4583;SDS011;2304;47.606;12.186;2023-03-19T14:03:17;6.80;;;3.60;;
4583;SDS011;2304;47.606;12.186;2023-03-19T14:08:21;4.40;;;3.00;;
4583;SDS011;2304;47.606;12.186;2023-03-19T14:13:29;6.70;;;4.00;;
4583;SDS011;2304;47.606;12.186;2023-03-19T14:18:36;5.50;;;3.63;;
4583;SDS011;2304;47.606;12.186;2023-03-19T14:23:41;8.30;;;3.40;;
4583;SDS011;2304;47.606;12.186;2023-03-19T14:28:58;4.90;;;3.40;;
4583;SDS011;2304;47.606;12.186;2023-03-19T14:34:05;6.07;;;3.30;;
4583;SDS011;2304;47.606;12.186;2023-03-19T14:39:17;6.57;;;3.30;;
4583;SDS011;2304;47.606;12.186;2023-03-19T14:44:34;7.27;;;3.83;;
4583;SDS011;2304;47.606;12.186;2023-03-19T14:49:58;8.33;;;3.93;;
4583;SDS011;2304;47.606;12.186;2023-03-19T14:55:32;6.37;;;3.70;;
4583;SDS011;2304;47.606;12.186;2023-03-19T15:00:40;6.37;;;3.90;;
4583;SDS011;2304;47.606;12.186;2023-03-19T15:05:45;5.70;;;3.20;;
4583;SDS011;2304;47.606;12.186;2023-03-19T15:10:52;7.33;;;4.07;;
4583;SDS011;2304;47.606;12.186;2023-03-19T15:16:05;7.33;;;4.23;;
4583;SDS011;2304;47.606;12.186;2023-03-19T15:21:18;8.63;;;4.83;;
4583;SDS011;2304;47.606;12.186;2023-03-19T15:26:28;8.03;;;3.67;;
4583;SDS011;2304;47.606;12.186;2023-03-19T15:31:41;6.63;;;3.73;;
4583;SDS011;2304;47.606;12.186;2023-03-19T15:36:45;5.70;;;4.13;;
4583;SDS011;2304;47.606;12.186;2023-03-19T15:41:48;10.50;;;4.50;;
4583;SDS011;2304;47.606;12.186;2023-03-19T15:46:54;5.10;;;3.63;;
4583;SDS011;2304;47.606;12.186;2023-03-19T15:51:58;7.10;;;3.80;;
4583;SDS011;2304;47.606;12.186;2023-03-19T15:57:04;7.37;;;4.20;;
4583;SDS011;2304;47.606;12.186;2023-03-19T16:02:12;7.77;;;4.70;;
4583;SDS011;2304;47.606;12.186;2023-03-19T16:07:22;4.50;;;3.40;;
4583;SDS011;2304;47.606;12.186;2023-03-19T16:12:33;6.83;;;3.80;;
4583;SDS011;2304;47.606;12.186;2023-03-19T16:17:38;4.93;;;3.23;;
4583;SDS011;2304;47.606;12.186;2023-03-19T16:22:40;8.93;;;3.53;;
4583;SDS011;2304;47.606;12.186;2023-03-19T16:27:43;6.47;;;3.40;;
4583;SDS011;2304;47.606;12.186;2023-03-19T16:32:56;5.40;;;3.50;;
4583;SDS011;2304;47.606;12.186;2023-03-19T16:38:05;6.23;;;4.00;;
4583;SDS011;2304;47.606;12.186;2023-03-19T16:43:14;6.93;;;5.13;;
4583;SDS011;2304;47.606;12.186;2023-03-19T16:48:21;6.90;;;3.70;;
4583;SDS011;2304;47.606;12.186;2023-03-19T16:53:23;6.60;;;3.53;;
4583;SDS011;2304;47.606;12.186;2023-03-19T16:58:27;8.23;;;4.93;;
4583;SDS011;2304;47.606;12.186;2023-03-19T17:03:35;6.70;;;4.37;;
4583;SDS011;2304;47.606;12.186;2023-03-19T17:08:37;6.10;;;4.30;;
4583;SDS011;2304;47.606;12.186;2023-03-19T17:13:39;10.63;;;6.53;;
4583;SDS011;2304;47.606;12.186;2023-03-19T17:18:43;81.43;;;40.93;;
4583;SDS011;2304;47.606;12.186;2023-03-19T17:23:46;107.33;;;44.03;;
4583;SDS011;2304;47.606;12.186;2023-03-19T17:28:49;81.60;;;35.50;;
4583;SDS011;2304;47.606;12.186;2023-03-19T17:33:54;30.63;;;16.20;;
4583;SDS011;2304;47.606;12.186;2023-03-19T17:38:59;24.07;;;12.00;;
4583;SDS011;2304;47.606;12.186;2023-03-19T17:44:01;24.13;;;13.73;;
4583;SDS011;2304;47.606;12.186;2023-03-19T17:49:05;21.90;;;9.40;;
4583;SDS011;2304;47.606;12.186;2023-03-19T17:54:11;41.67;;;18.77;;
4583;SDS011;2304;47.606;12.186;2023-03-19T17:59:13;12.50;;;6.03;;
4583;SDS011;2304;47.606;12.186;2023-03-19T18:04:17;25.70;;;13.63;;
4583;SDS011;2304;47.606;12.186;2023-03-19T18:09:22;12.00;;;7.03;;
4583;SDS011;2304;47.606;12.186;2023-03-19T18:14:25;18.77;;;11.30;;
4583;SDS011;2304;47.606;12.186;2023-03-19T18:19:29;12.60;;;5.73;;
4583;SDS011;2304;47.606;12.186;2023-03-19T18:24:33;24.97;;;16.20;;
4583;SDS011;2304;47.606;12.186;2023-03-19T18:29:35;12.43;;;7.00;;
4583;SDS011;2304;47.606;12.186;2023-03-19T18:34:38;19.23;;;8.20;;
4583;SDS011;2304;47.606;12.186;2023-03-19T18:39:40;21.97;;;14.60;;
4583;SDS011;2304;47.606;12.186;2023-03-19T18:44:42;31.40;;;17.67;;
4583;SDS011;2304;47.606;12.186;2023-03-19T18:49:45;17.70;;;10.67;;
4583;SDS011;2304;47.606;12.186;2023-03-19T18:54:47;11.43;;;6.13;;
4583;SDS011;2304;47.606;12.186;2023-03-19T18:59:49;11.47;;;4.97;;
4583;SDS011;2304;47.606;12.186;2023-03-19T19:04:52;42.27;;;19.30;;
4583;SDS011;2304;47.606;12.186;2023-03-19T19:09:53;14.97;;;8.50;;
4583;SDS011;2304;47.606;12.186;2023-03-19T19:14:55;22.70;;;7.67;;
4583;SDS011;2304;47.606;12.186;2023-03-19T19:20:00;10.70;;;7.13;;
4583;SDS011;2304;47.606;12.186;2023-03-19T19:25:01;17.80;;;9.83;;
4583;SDS011;2304;47.606;12.186;2023-03-19T19:30:04;16.37;;;7.57;;
4583;SDS011;2304;47.606;12.186;2023-03-19T19:35:12;13.03;;;5.20;;
4583;SDS011;2304;47.606;12.186;2023-03-19T19:40:16;8.23;;;5.20;;
4583;SDS011;2304;47.606;12.186;2023-03-19T19:45:24;7.20;;;3.57;;
4583;SDS011;2304;47.606;12.186;2023-03-19T19:50:30;7.50;;;4.30;;
4583;SDS011;2304;47.606;12.186;2023-03-19T19:55:32;11.47;;;6.13;;
4583;SDS011;2304;47.606;12.186;2023-03-19T20:00:34;12.67;;;6.60;;
4583;SDS011;2304;47.606;12.186;2023-03-19T20:05:37;9.20;;;4.70;;
4583;SDS011;2304;47.606;12.186;2023-03-19T20:10:39;11.10;;;5.80;;
4583;SDS011;2304;47.606;12.186;2023-03-19T20:15:41;7.90;;;5.17;;
4583;SDS011;2304;47.606;12.186;2023-03-19T20:20:44;10.60;;;5.40;;
4583;SDS011;2304;47.606;12.186;2023-03-19T20:25:46;10.80;;;6.30;;
4583;SDS011;2304;47.606;12.186;2023-03-19T20:30:49;8.50;;;5.27;;
4583;SDS011;2304;47.606;12.186;2023-03-19T20:35:54;9.63;;;4.30;;
4583;SDS011;2304;47.606;12.186;2023-03-19T20:40:55;6.70;;;4.50;;
4583;SDS011;2304;47.606;12.186;2023-03-19T20:45:58;8.70;;;5.23;;
4583;SDS011;2304;47.606;12.186;2023-03-19T20:51:04;5.80;;;3.80;;
4583;SDS011;2304;47.606;12.186;2023-03-19T20:56:08;8.20;;;3.57;;
4583;SDS011;2304;47.606;12.186;2023-03-19T21:01:13;5.90;;;4.10;;
4583;SDS011;2304;47.606;12.186;2023-03-19T21:06:19;6.90;;;4.10;;
4583;SDS011;2304;47.606;12.186;2023-03-19T21:11:22;6.70;;;4.47;;
4583;SDS011;2304;47.606;12.186;2023-03-19T21:16:33;9.00;;;4.60;;
4583;SDS011;2304;47.606;12.186;2023-03-19T21:21:36;7.33;;;4.90;;
4583;SDS011;2304;47.606;12.186;2023-03-19T21:26:38;9.27;;;5.20;;
4583;SDS011;2304;47.606;12.186;2023-03-19T21:31:41;9.20;;;5.17;;
4583;SDS011;2304;47.606;12.186;2023-03-19T21:36:46;9.60;;;5.37;;
4583;SDS011;2304;47.606;12.186;2023-03-19T21:41:47;9.43;;;5.50;;
4583;SDS011;2304;47.606;12.186;2023-03-19T21:46:49;6.93;;;4.90;;
4583;SDS011;2304;47.606;12.186;2023-03-19T21:51:53;5.60;;;4.70;;
4583;SDS011;2304;47.606;12.186;2023-03-19T21:56:56;9.57;;;5.57;;
4583;SDS011;2304;47.606;12.186;2023-03-19T22:01:58;11.53;;;5.37;;
4583;SDS011;2304;47.606;12.186;2023-03-19T22:07:01;10.20;;;5.07;;
4583;SDS011;2304;47.606;12.186;2023-03-19T22:12:03;9.10;;;5.60;;
4583;SDS011;2304;47.606;12.186;2023-03-19T22:17:07;7.03;;;4.43;;
4583;SDS011;2304;47.606;12.186;2023-03-19T22:22:11;7.23;;;4.20;;
4583;SDS011;2304;47.606;12.186;2023-03-19T22:27:13;6.33;;;3.80;;
4583;SDS011;2304;47.606;12.186;2023-03-19T22:32:17;12.40;;;4.90;;
4583;SDS011;2304;47.606;12.186;2023-03-19T22:37:23;7.80;;;4.97;;
4583;SDS011;2304;47.606;12.186;2023-03-19T22:42:26;9.57;;;5.60;;
4583;SDS011;2304;47.606;12.186;2023-03-19T22:47:28;7.10;;;4.57;;
4583;SDS011;2304;47.606;12.186;2023-03-19T22:52:34;6.57;;;4.07;;
4583;SDS011;2304;47.606;12.186;2023-03-19T22:57:36;7.37;;;4.60;;
4583;SDS011;2304;47.606;12.186;2023-03-19T23:02:38;6.90;;;4.70;;
4583;SDS011;2304;47.606;12.186;2023-03-19T23:07:41;11.77;;;4.80;;
4583;SDS011;2304;47.606;12.186;2023-03-19T23:12:43;6.00;;;3.90;;
4583;SDS011;2304;47.606;12.186;2023-03-19T23:17:45;9.40;;;5.00;;
4583;SDS011;2304;47.606;12.186;2023-03-19T23:22:49;8.07;;;5.40;;
4583;SDS011;2304;47.606;12.186;2023-03-19T23:27:52;6.70;;;4.60;;
4583;SDS011;2304;47.606;12.186;2023-03-19T23:32:56;6.20;;;4.40;;
4583;SDS011;2304;47.606;12.186;2023-03-19T23:38:01;9.03;;;5.10;;
4583;SDS011;2304;47.606;12.186;2023-03-19T23:43:03;7.40;;;4.40;;
4583;SDS011;2304;47.606;12.186;2023-03-19T23:48:11;6.67;;;4.37;;
4583;SDS011;2304;47.606;12.186;2023-03-19T23:53:20;7.47;;;4.90;;
4583;SDS011;2304;47.606;12.186;2023-03-19T23:58:23;12.30;;;4.70;;
